sensor_id;sensor_type;location;lat;lon;timestamp;pressure;altitude;pressure_sealevel;temperature;humidity
53758;BME280;39674;59.860;30.672;2023-06-04T00:00:14;100860.81;;;6.32;93.51
53758;BME280;39674;59.860;30.672;2023-06-04T00:03:28;100878.84;;;6.42;92.68
53758;BME280;39674;59.860;30.672;2023-06-04T00:06:16;100931.94;;;6.78;92.29
53758;BME280;39674;59.860;30.672;2023-06-04T00:08:58;100855.56;;;6.32;92.39
53758;BME280;39674;59.860;30.672;2023-06-04T00:11:29;100855.56;;;6.32;92.45
53758;BME280;39674;59.860;30.672;2023-06-04T00:14:02;100908.84;;;6.62;92.70
53758;BME280;39674;59.860;30.672;2023-06-04T00:16:40;100986.06;;;7.10;93.01
53758;BME280;39674;59.860;30.672;2023-06-04T00:19:09;100857.22;;;6.34;92.46
53758;BME280;39674;59.860;30.672;2023-06-04T00:21:44;100977.47;;;7.05;92.34
53758;BME280;39674;59.860;30.672;2023-06-04T00:24:19;100844.59;;;6.19;92.36
53758;BME280;39674;59.860;30.672;2023-06-04T00:27:10;100914.13;;;6.61;92.79
53758;BME280;39674;59.860;30.672;2023-06-04T00:29:52;100981.03;;;7.04;92.33
53758;BME280;39674;59.860;30.672;2023-06-04T00:32:34;100931.19;;;6.74;92.23
53758;BME280;39674;59.860;30.672;2023-06-04T00:35:09;100912.59;;;6.53;92.39
53758;BME280;39674;59.860;30.672;2023-06-04T00:37:52;100943.53;;;6.72;91.84
53758;BME280;39674;59.860;30.672;2023-06-04T00:40:37;100849.88;;;6.17;91.79
53758;BME280;39674;59.860;30.672;2023-06-04T00:43:10;100928.88;;;6.65;91.91
53758;BME280;39674;59.860;30.672;2023-06-04T00:52:24;100850.84;;;6.15;91.53
53758;BME280;39674;59.860;30.672;2023-06-04T00:55:07;100851.16;;;6.04;91.36
53758;BME280;39674;59.860;30.672;2023-06-04T00:58:00;100935.09;;;6.62;91.35
53758;BME280;39674;59.860;30.672;2023-06-04T01:04:16;100964.13;;;6.84;91.05
53758;BME280;39674;59.860;30.672;2023-06-04T01:14:46;100918.03;;;6.47;89.90
53758;BME280;39674;59.860;30.672;2023-06-04T01:18:45;100825.94;;;5.98;89.89
53758;BME280;39674;59.860;30.672;2023-06-04T01:22:18;100830.25;;;6.01;90.21
53758;BME280;39674;59.860;30.672;2023-06-04T01:25:48;100833.72;;;6.03;90.34
53758;BME280;39674;59.860;30.672;2023-06-04T01:34:32;100958.78;;;6.87;89.58
53758;BME280;39674;59.860;30.672;2023-06-04T01:38:32;100831.72;;;6.11;88.23
53758;BME280;39674;59.860;30.672;2023-06-04T01:41:28;100831.59;;;6.14;88.91
53758;BME280;39674;59.860;30.672;2023-06-04T01:44:22;100902.00;;;6.56;88.87
53758;BME280;39674;59.860;30.672;2023-06-04T01:48:01;100813.63;;;6.02;88.99
53758;BME280;39674;59.860;30.672;2023-06-04T01:51:07;100918.31;;;6.66;89.26
53758;BME280;39674;59.860;30.672;2023-06-04T01:54:27;100913.34;;;6.57;89.70
53758;BME280;39674;59.860;30.672;2023-06-04T01:57:54;100919.09;;;6.70;89.68
53758;BME280;39674;59.860;30.672;2023-06-04T02:01:24;100833.25;;;6.18;89.62
53758;BME280;39674;59.860;30.672;2023-06-04T02:05:06;100832.94;;;6.28;90.12
53758;BME280;39674;59.860;30.672;2023-06-04T02:08:43;100835.63;;;6.26;90.17
53758;BME280;39674;59.860;30.672;2023-06-04T02:12:06;100831.22;;;6.26;90.50
53758;BME280;39674;59.860;30.672;2023-06-04T02:15:26;100920.50;;;6.80;91.54
53758;BME280;39674;59.860;30.672;2023-06-04T02:19:51;100833.75;;;6.30;91.04
53758;BME280;39674;59.860;30.672;2023-06-04T02:23:18;100870.53;;;6.56;91.93
53758;BME280;39674;59.860;30.672;2023-06-04T02:26:22;100925.47;;;6.89;93.75
53758;BME280;39674;59.860;30.672;2023-06-04T02:35:50;100909.34;;;6.73;100.00
53758;BME280;39674;59.860;30.672;2023-06-04T02:39:01;100930.72;;;6.89;100.00
53758;BME280;39674;59.860;30.672;2023-06-04T02:42:26;100879.41;;;6.52;100.00
53758;BME280;39674;59.860;30.672;2023-06-04T02:45:20;100878.66;;;6.47;100.00
53758;BME280;39674;59.860;30.672;2023-06-04T02:50:55;100951.03;;;6.83;100.00
53758;BME280;39674;59.860;30.672;2023-06-04T02:53:32;100902.78;;;6.60;100.00
53758;BME280;39674;59.860;30.672;2023-06-04T02:56:38;100877.78;;;6.48;100.00
53758;BME280;39674;59.860;30.672;2023-06-04T02:59:10;100850.41;;;6.29;100.00
53758;BME280;39674;59.860;30.672;2023-06-04T03:01:46;100939.69;;;6.82;100.00
53758;BME280;39674;59.860;30.672;2023-06-04T03:04:23;100925.75;;;6.80;100.00
53758;BME280;39674;59.860;30.672;2023-06-04T03:06:58;100862.34;;;6.39;100.00
53758;BME280;39674;59.860;30.672;2023-06-04T03:09:34;100978.22;;;7.09;100.00
53758;BME280;39674;59.860;30.672;2023-06-04T03:12:50;100920.50;;;6.80;100.00
53758;BME280;39674;59.860;30.672;2023-06-04T03:15:08;100908.38;;;6.76;100.00
53758;BME280;39674;59.860;30.672;2023-06-04T03:17:45;100927.22;;;6.89;100.00
53758;BME280;39674;59.860;30.672;2023-06-04T03:20:18;100970.19;;;7.13;100.00
53758;BME280;39674;59.860;30.672;2023-06-04T03:22:55;100942.72;;;6.97;100.00
53758;BME280;39674;59.860;30.672;2023-06-04T03:25:40;100958.16;;;7.06;100.00
53758;BME280;39674;59.860;30.672;2023-06-04T03:28:16;100892.91;;;6.67;100.00
53758;BME280;39674;59.860;30.672;2023-06-04T03:30:55;100923.09;;;6.82;100.00
53758;BME280;39674;59.860;30.672;2023-06-04T03:33:50;100915.94;;;6.85;100.00
53758;BME280;39674;59.860;30.672;2023-06-04T03:36:55;100907.97;;;6.88;100.00
53758;BME280;39674;59.860;30.672;2023-06-04T03:39:29;100943.44;;;7.02;100.00
53758;BME280;39674;59.860;30.672;2023-06-04T03:42:10;100904.03;;;6.75;100.00
53758;BME280;39674;59.860;30.672;2023-06-04T03:44:41;100884.47;;;6.58;100.00
53758;BME280;39674;59.860;30.672;2023-06-04T03:47:28;100912.59;;;6.82;100.00
53758;BME280;39674;59.860;30.672;2023-06-04T03:50:07;100889.41;;;6.68;100.00
53758;BME280;39674;59.860;30.672;2023-06-04T03:52:43;100902.31;;;6.74;100.00
53758;BME280;39674;59.860;30.672;2023-06-04T03:55:34;100935.66;;;6.99;100.00
53758;BME280;39674;59.860;30.672;2023-06-04T03:58:24;100874.03;;;6.55;100.00
53758;BME280;39674;59.860;30.672;2023-06-04T04:00:57;100905.00;;;6.72;100.00
53758;BME280;39674;59.860;30.672;2023-06-04T04:03:36;100899.69;;;6.74;100.00
53758;BME280;39674;59.860;30.672;2023-06-04T04:06:20;100953.03;;;7.03;100.00
53758;BME280;39674;59.860;30.672;2023-06-04T04:09:08;100917.94;;;6.79;100.00
53758;BME280;39674;59.860;30.672;2023-06-04T04:11:51;100869.56;;;6.59;100.00
53758;BME280;39674;59.860;30.672;2023-06-04T04:15:07;100902.09;;;6.82;100.00
53758;BME280;39674;59.860;30.672;2023-06-04T04:17:57;100866.78;;;6.64;100.00
53758;BME280;39674;59.860;30.672;2023-06-04T04:20:57;100823.00;;;6.37;100.00
53758;BME280;39674;59.860;30.672;2023-06-04T04:23:30;100938.94;;;7.05;100.00
53758;BME280;39674;59.860;30.672;2023-06-04T04:26:16;100884.66;;;6.79;100.00
53758;BME280;39674;59.860;30.672;2023-06-04T04:28:54;100895.66;;;6.90;100.00
53758;BME280;39674;59.860;30.672;2023-06-04T04:31:36;100833.66;;;6.59;100.00
53758;BME280;39674;59.860;30.672;2023-06-04T04:34:26;100881.53;;;6.95;100.00
53758;BME280;39674;59.860;30.672;2023-06-04T04:37:06;100928.03;;;7.18;100.00
53758;BME280;39674;59.860;30.672;2023-06-04T04:40:19;100888.28;;;7.02;100.00
53758;BME280;39674;59.860;30.672;2023-06-04T04:42:54;100938.81;;;7.35;100.00
53758;BME280;39674;59.860;30.672;2023-06-04T04:45:35;100868.09;;;7.04;100.00
53758;BME280;39674;59.860;30.672;2023-06-04T04:48:21;100809.59;;;6.73;100.00
53758;BME280;39674;59.860;30.672;2023-06-04T04:55:01;100883.78;;;7.31;100.00
53758;BME280;39674;59.860;30.672;2023-06-04T04:58:03;100892.16;;;7.42;100.00
53758;BME280;39674;59.860;30.672;2023-06-04T05:00:58;100931.84;;;7.60;100.00
53758;BME280;39674;59.860;30.672;2023-06-04T05:03:48;100851.19;;;7.11;100.00
53758;BME280;39674;59.860;30.672;2023-06-04T05:06:43;100887.00;;;7.39;100.00
53758;BME280;39674;59.860;30.672;2023-06-04T05:09:29;100887.13;;;7.36;100.00
53758;BME280;39674;59.860;30.672;2023-06-04T05:12:05;100913.50;;;7.58;100.00
53758;BME280;39674;59.860;30.672;2023-06-04T05:14:39;100872.88;;;7.42;100.00
53758;BME280;39674;59.860;30.672;2023-06-04T05:17:25;100909.91;;;7.61;100.00
53758;BME280;39674;59.860;30.672;2023-06-04T05:20:53;100797.94;;;7.07;100.00
53758;BME280;39674;59.860;30.672;2023-06-04T05:23:35;100850.81;;;7.47;100.00
53758;BME280;39674;59.860;30.672;2023-06-04T05:26:46;100825.59;;;7.42;100.00
53758;BME280;39674;59.860;30.672;2023-06-04T05:29:44;100882.16;;;7.99;100.00
53758;BME280;39674;59.860;30.672;2023-06-04T05:32:59;100797.38;;;7.70;100.00
53758;BME280;39674;59.860;30.672;2023-06-04T05:36:28;100809.50;;;7.97;100.00
53758;BME280;39674;59.860;30.672;2023-06-04T05:39:37;100848.78;;;8.24;100.00
53758;BME280;39674;59.860;30.672;2023-06-04T05:42:51;100838.22;;;8.25;100.00
53758;BME280;39674;59.860;30.672;2023-06-04T05:45:48;100864.00;;;8.39;100.00
53758;BME280;39674;59.860;30.672;2023-06-04T05:48:56;100863.91;;;8.41;100.00
53758;BME280;39674;59.860;30.672;2023-06-04T05:52:20;100792.97;;;7.93;100.00
53758;BME280;39674;59.860;30.672;2023-06-04T06:09:25;100804.63;;;8.10;100.00
53758;BME280;39674;59.860;30.672;2023-06-04T06:12:59;100865.56;;;8.43;100.00
53758;BME280;39674;59.860;30.672;2023-06-04T06:16:12;100884.34;;;8.58;100.00
53758;BME280;39674;59.860;30.672;2023-06-04T06:19:17;100782.84;;;8.06;100.00
53758;BME280;39674;59.860;30.672;2023-06-04T06:23:40;100798.75;;;8.25;100.00
53758;BME280;39674;59.860;30.672;2023-06-04T06:30:52;100817.34;;;8.65;100.00
53758;BME280;39674;59.860;30.672;2023-06-04T06:36:58;100871.91;;;9.04;100.00
53758;BME280;39674;59.860;30.672;2023-06-04T06:37:53;100860.69;;;8.99;100.00
53758;BME280;39674;59.860;30.672;2023-06-04T06:40:51;100888.91;;;9.18;100.00
53758;BME280;39674;59.860;30.672;2023-06-04T06:51:12;100803.00;;;8.72;100.00
53758;BME280;39674;59.860;30.672;2023-06-04T06:54:28;100908.44;;;9.53;100.00
53758;BME280;39674;59.860;30.672;2023-06-04T06:57:45;100805.38;;;8.99;100.00
53758;BME280;39674;59.860;30.672;2023-06-04T07:00:45;100839.47;;;9.23;100.00
53758;BME280;39674;59.860;30.672;2023-06-04T07:04:00;100877.16;;;9.45;100.00
53758;BME280;39674;59.860;30.672;2023-06-04T07:06:41;100870.44;;;9.38;100.00
53758;BME280;39674;59.860;30.672;2023-06-04T07:09:25;100915.50;;;9.53;100.00
53758;BME280;39674;59.860;30.672;2023-06-04T07:12:08;100876.25;;;9.26;100.00
53758;BME280;39674;59.860;30.672;2023-06-04T07:14:53;100822.44;;;8.90;100.00
53758;BME280;39674;59.860;30.672;2023-06-04T07:17:44;100882.72;;;9.39;100.00
53758;BME280;39674;59.860;30.672;2023-06-04T07:20:40;100912.53;;;9.60;100.00
53758;BME280;39674;59.860;30.672;2023-06-04T07:23:50;100807.47;;;9.11;100.00
53758;BME280;39674;59.860;30.672;2023-06-04T07:27:00;100816.16;;;9.13;100.00
53758;BME280;39674;59.860;30.672;2023-06-04T07:29:45;100877.91;;;9.68;100.00
53758;BME280;39674;59.860;30.672;2023-06-04T07:32:57;100822.84;;;9.41;100.00
53758;BME280;39674;59.860;30.672;2023-06-04T07:37:04;100932.84;;;9.98;100.00
53758;BME280;39674;59.860;30.672;2023-06-04T07:39:45;100883.09;;;9.51;100.00
53758;BME280;39674;59.860;30.672;2023-06-04T07:46:11;100922.25;;;9.39;100.00
53758;BME280;39674;59.860;30.672;2023-06-04T07:49:55;100870.31;;;9.00;100.00
53758;BME280;39674;59.860;30.672;2023-06-04T07:52:56;100876.28;;;9.04;100.00
53758;BME280;39674;59.860;30.672;2023-06-04T07:55:51;100853.06;;;8.93;100.00
53758;BME280;39674;59.860;30.672;2023-06-04T07:58:36;100931.47;;;9.50;100.00
53758;BME280;39674;59.860;30.672;2023-06-04T08:01:18;100891.53;;;9.38;100.00
53758;BME280;39674;59.860;30.672;2023-06-04T08:05:30;100859.50;;;9.27;100.00
53758;BME280;39674;59.860;30.672;2023-06-04T08:07:38;100912.06;;;9.71;100.00
53758;BME280;39674;59.860;30.672;2023-06-04T08:10:50;100901.53;;;9.51;100.00
53758;BME280;39674;59.860;30.672;2023-06-04T08:16:46;100816.50;;;9.06;100.00
53758;BME280;39674;59.860;30.672;2023-06-04T08:19:56;100904.56;;;9.62;100.00
53758;BME280;39674;59.860;30.672;2023-06-04T08:34:40;100827.38;;;9.19;100.00
53758;BME280;39674;59.860;30.672;2023-06-04T08:42:18;100918.19;;;9.51;100.00
53758;BME280;39674;59.860;30.672;2023-06-04T08:46:07;100949.91;;;9.70;100.00
53758;BME280;39674;59.860;30.672;2023-06-04T08:56:45;100922.13;;;10.01;100.00
53758;BME280;39674;59.860;30.672;2023-06-04T08:59:35;100885.34;;;9.79;100.00
53758;BME280;39674;59.860;30.672;2023-06-04T09:02:52;100966.38;;;10.34;100.00
53758;BME280;39674;59.860;30.672;2023-06-04T09:15:08;100923.22;;;9.97;100.00
53758;BME280;39674;59.860;30.672;2023-06-04T09:18:35;100911.34;;;9.87;100.00
53758;BME280;39674;59.860;30.672;2023-06-04T09:25:01;100927.97;;;9.89;100.00
53758;BME280;39674;59.860;30.672;2023-06-04T09:28:10;100917.56;;;9.86;100.00
53758;BME280;39674;59.860;30.672;2023-06-04T09:31:24;100933.25;;;9.89;100.00
53758;BME280;39674;59.860;30.672;2023-06-04T09:35:41;100847.59;;;9.58;100.00
53758;BME280;39674;59.860;30.672;2023-06-04T09:38:41;100928.28;;;10.21;100.00
53758;BME280;39674;59.860;30.672;2023-06-04T09:49:02;100869.88;;;10.09;100.00
53758;BME280;39674;59.860;30.672;2023-06-04T09:52:58;100940.06;;;10.52;100.00
53758;BME280;39674;59.860;30.672;2023-06-04T09:56:18;100862.38;;;10.00;100.00
53758;BME280;39674;59.860;30.672;2023-06-04T10:01:40;100877.63;;;10.12;100.00
53758;BME280;39674;59.860;30.672;2023-06-04T10:03:08;100905.16;;;10.26;100.00
53758;BME280;39674;59.860;30.672;2023-06-04T10:14:19;100857.91;;;12.11;100.00
53758;BME280;39674;59.860;30.672;2023-06-04T10:18:12;100849.00;;;12.44;100.00
53758;BME280;39674;59.860;30.672;2023-06-04T10:21:06;100849.19;;;12.41;100.00
53758;BME280;39674;59.860;30.672;2023-06-04T10:24:15;100846.22;;;12.78;100.00
53758;BME280;39674;59.860;30.672;2023-06-04T10:27:26;100890.59;;;13.19;100.00
53758;BME280;39674;59.860;30.672;2023-06-04T10:30:13;100846.09;;;13.10;100.00
53758;BME280;39674;59.860;30.672;2023-06-04T10:36:57;100921.81;;;13.75;100.00
53758;BME280;39674;59.860;30.672;2023-06-04T10:39:35;100964.78;;;14.52;100.00
53758;BME280;39674;59.860;30.672;2023-06-04T10:51:28;100834.25;;;14.29;96.23
53758;BME280;39674;59.860;30.672;2023-06-04T11:02:02;100844.13;;;14.82;88.59
53758;BME280;39674;59.860;30.672;2023-06-04T11:05:32;100856.34;;;14.85;81.15
53758;BME280;39674;59.860;30.672;2023-06-04T11:18:01;100986.09;;;13.94;90.70
53758;BME280;39674;59.860;30.672;2023-06-04T11:23:41;100937.72;;;13.60;91.57
53758;BME280;39674;59.860;30.672;2023-06-04T11:39:39;100878.13;;;13.21;89.98
53758;BME280;39674;59.860;30.672;2023-06-04T11:59:12;100956.13;;;13.92;89.18
53758;BME280;39674;59.860;30.672;2023-06-04T12:21:35;100920.97;;;13.29;86.80
53758;BME280;39674;59.860;30.672;2023-06-04T12:25:22;100948.31;;;13.30;88.90
53758;BME280;39674;59.860;30.672;2023-06-04T12:29:29;100920.88;;;13.00;89.89
53758;BME280;39674;59.860;30.672;2023-06-04T12:33:51;101026.84;;;13.48;91.82
53758;BME280;39674;59.860;30.672;2023-06-04T12:37:11;100910.84;;;12.59;93.87
53758;BME280;39674;59.860;30.672;2023-06-04T12:40:10;100925.56;;;12.49;95.26
53758;BME280;39674;59.860;30.672;2023-06-04T12:44:18;100914.47;;;12.26;98.87
53758;BME280;39674;59.860;30.672;2023-06-04T13:02:03;100921.03;;;10.99;100.00
53758;BME280;39674;59.860;30.672;2023-06-04T13:12:55;100981.09;;;11.32;100.00
53758;BME280;39674;59.860;30.672;2023-06-04T13:16:16;100930.69;;;11.18;100.00
53758;BME280;39674;59.860;30.672;2023-06-04T13:21:40;100893.84;;;11.15;100.00
53758;BME280;39674;59.860;30.672;2023-06-04T13:23:42;100991.47;;;11.88;100.00
53758;BME280;39674;59.860;30.672;2023-06-04T13:29:14;101000.22;;;11.72;100.00
53758;BME280;39674;59.860;30.672;2023-06-04T13:31:43;101032.03;;;11.88;100.00
53758;BME280;39674;59.860;30.672;2023-06-04T13:34:12;101000.38;;;11.69;100.00
53758;BME280;39674;59.860;30.672;2023-06-04T13:36:41;100932.41;;;11.36;100.00
53758;BME280;39674;59.860;30.672;2023-06-04T13:39:10;101013.75;;;11.84;100.00
53758;BME280;39674;59.860;30.672;2023-06-04T13:41:38;101047.38;;;12.17;100.00
53758;BME280;39674;59.860;30.672;2023-06-04T13:44:09;101002.22;;;12.02;100.00
53758;BME280;39674;59.860;30.672;2023-06-04T13:46:40;101046.91;;;12.42;100.00
53758;BME280;39674;59.860;30.672;2023-06-04T13:49:09;101001.22;;;12.21;100.00
53758;BME280;39674;59.860;30.672;2023-06-04T13:51:39;100977.50;;;12.19;100.00
53758;BME280;39674;59.860;30.672;2023-06-04T13:54:21;100955.63;;;12.16;100.00
53758;BME280;39674;59.860;30.672;2023-06-04T13:57:01;101044.66;;;12.84;97.93
53758;BME280;39674;59.860;30.672;2023-06-04T13:59:40;100984.19;;;12.43;98.24
53758;BME280;39674;59.860;30.672;2023-06-04T14:02:11;101014.97;;;12.61;99.20
53758;BME280;39674;59.860;30.672;2023-06-04T14:04:43;100955.81;;;12.29;97.15
53758;BME280;39674;59.860;30.672;2023-06-04T14:07:16;101006.56;;;12.69;97.43
53758;BME280;39674;59.860;30.672;2023-06-04T14:10:11;100934.63;;;12.29;97.78
53758;BME280;39674;59.860;30.672;2023-06-04T14:12:42;100990.53;;;12.56;98.82
53758;BME280;39674;59.860;30.672;2023-06-04T14:15:13;101029.44;;;12.72;99.19
53758;BME280;39674;59.860;30.672;2023-06-04T14:18:00;100955.28;;;12.22;98.04
53758;BME280;39674;59.860;30.672;2023-06-04T14:20:30;101061.41;;;12.84;97.85
53758;BME280;39674;59.860;30.672;2023-06-04T14:23:00;101059.00;;;12.96;98.22
53758;BME280;39674;59.860;30.672;2023-06-04T14:25:31;101042.81;;;13.00;94.92
53758;BME280;39674;59.860;30.672;2023-06-04T14:28:04;101002.81;;;12.89;94.48
53758;BME280;39674;59.860;30.672;2023-06-04T14:30:36;100982.91;;;12.82;88.20
53758;BME280;39674;59.860;30.672;2023-06-04T14:33:13;100936.00;;;12.52;90.68
53758;BME280;39674;59.860;30.672;2023-06-04T14:35:52;101016.16;;;13.04;90.05
53758;BME280;39674;59.860;30.672;2023-06-04T14:38:27;101074.28;;;13.39;91.50
53758;BME280;39674;59.860;30.672;2023-06-04T14:41:01;101045.09;;;13.39;89.39
53758;BME280;39674;59.860;30.672;2023-06-04T14:43:33;101049.81;;;13.33;89.89
53758;BME280;39674;59.860;30.672;2023-06-04T14:46:12;100909.66;;;12.49;89.09
53758;BME280;39674;59.860;30.672;2023-06-04T14:52:59;100989.72;;;12.86;89.46
53758;BME280;39674;59.860;30.672;2023-06-04T14:55:49;101070.00;;;13.20;88.92
53758;BME280;39674;59.860;30.672;2023-06-04T14:58:38;101006.91;;;12.79;88.91
53758;BME280;39674;59.860;30.672;2023-06-04T15:01:11;101055.31;;;12.98;89.30
53758;BME280;39674;59.860;30.672;2023-06-04T15:03:47;100941.28;;;12.20;89.87
53758;BME280;39674;59.860;30.672;2023-06-04T15:06:16;101007.94;;;12.60;89.58
53758;BME280;39674;59.860;30.672;2023-06-04T15:08:50;101025.41;;;12.64;88.17
53758;BME280;39674;59.860;30.672;2023-06-04T15:11:20;101046.25;;;12.71;89.91
53758;BME280;39674;59.860;30.672;2023-06-04T15:13:50;101022.06;;;12.61;91.14
53758;BME280;39674;59.860;30.672;2023-06-04T15:16:18;101046.16;;;12.72;91.02
53758;BME280;39674;59.860;30.672;2023-06-04T15:18:50;101058.41;;;12.75;92.06
53758;BME280;39674;59.860;30.672;2023-06-04T15:21:24;101062.84;;;12.74;92.08
53758;BME280;39674;59.860;30.672;2023-06-04T15:23:56;100950.84;;;12.07;93.74
53758;BME280;39674;59.860;30.672;2023-06-04T15:26:26;101027.75;;;12.53;93.68
53758;BME280;39674;59.860;30.672;2023-06-04T15:28:56;100943.31;;;12.15;93.79
53758;BME280;39674;59.860;30.672;2023-06-04T15:31:37;101052.59;;;12.84;91.83
53758;BME280;39674;59.860;30.672;2023-06-04T15:34:14;101051.47;;;12.88;90.92
53758;BME280;39674;59.860;30.672;2023-06-04T15:36:43;101050.34;;;12.92;93.14
53758;BME280;39674;59.860;30.672;2023-06-04T15:39:39;100948.28;;;12.37;92.27
53758;BME280;39674;59.860;30.672;2023-06-04T15:42:15;101060.63;;;12.98;85.14
53758;BME280;39674;59.860;30.672;2023-06-04T15:44:51;100987.53;;;12.62;84.92
53758;BME280;39674;59.860;30.672;2023-06-04T15:47:49;101050.03;;;13.14;83.07
53758;BME280;39674;59.860;30.672;2023-06-04T15:50:51;100928.56;;;12.43;82.01
53758;BME280;39674;59.860;30.672;2023-06-04T15:53:37;100919.09;;;12.39;80.44
53758;BME280;39674;59.860;30.672;2023-06-04T15:56:17;100964.25;;;12.67;81.28
53758;BME280;39674;59.860;30.672;2023-06-04T15:58:46;100981.63;;;12.73;77.62
53758;BME280;39674;59.860;30.672;2023-06-04T16:01:15;101047.44;;;13.13;79.09
53758;BME280;39674;59.860;30.672;2023-06-04T16:03:54;100951.38;;;12.61;80.58
53758;BME280;39674;59.860;30.672;2023-06-04T16:06:31;101047.84;;;13.21;78.03
53758;BME280;39674;59.860;30.672;2023-06-04T16:09:02;101054.09;;;13.20;79.63
53758;BME280;39674;59.860;30.672;2023-06-04T16:11:34;101057.69;;;13.19;79.26
53758;BME280;39674;59.860;30.672;2023-06-04T16:14:05;100968.97;;;12.62;80.41
53758;BME280;39674;59.860;30.672;2023-06-04T16:16:34;101010.00;;;12.87;79.47
53758;BME280;39674;59.860;30.672;2023-06-04T16:19:06;101052.00;;;13.11;79.06
53758;BME280;39674;59.860;30.672;2023-06-04T16:21:38;100931.56;;;12.36;76.53
53758;BME280;39674;59.860;30.672;2023-06-04T16:24:08;101017.25;;;12.83;78.44
53758;BME280;39674;59.860;30.672;2023-06-04T16:26:39;100993.59;;;12.64;77.22
53758;BME280;39674;59.860;30.672;2023-06-04T16:29:08;101056.44;;;12.94;77.89
53758;BME280;39674;59.860;30.672;2023-06-04T16:31:37;100946.41;;;12.23;79.02
53758;BME280;39674;59.860;30.672;2023-06-04T16:34:06;101033.94;;;12.70;79.13
53758;BME280;39674;59.860;30.672;2023-06-04T16:36:37;101032.22;;;12.68;78.58
53758;BME280;39674;59.860;30.672;2023-06-04T16:39:06;101052.59;;;12.84;79.36
53758;BME280;39674;59.860;30.672;2023-06-04T16:41:40;100938.88;;;12.15;80.97
53758;BME280;39674;59.860;30.672;2023-06-04T16:44:09;101057.38;;;12.77;81.62
53758;BME280;39674;59.860;30.672;2023-06-04T16:46:59;100959.06;;;12.18;82.71
53758;BME280;39674;59.860;30.672;2023-06-04T16:51:52;100957.66;;;12.11;81.92
53758;BME280;39674;59.860;30.672;2023-06-04T16:54:07;101017.50;;;12.47;82.19
53758;BME280;39674;59.860;30.672;2023-06-04T16:57:31;101008.84;;;12.27;82.57
53758;BME280;39674;59.860;30.672;2023-06-04T17:00:00;100961.44;;;11.89;83.39
53758;BME280;39674;59.860;30.672;2023-06-04T17:02:40;100969.69;;;11.83;85.04
53758;BME280;39674;59.860;30.672;2023-06-04T17:05:39;101012.16;;;12.15;84.96
53758;BME280;39674;59.860;30.672;2023-06-04T17:08:26;101013.03;;;12.15;85.55
53758;BME280;39674;59.860;30.672;2023-06-04T17:11:18;101088.06;;;12.65;85.23
53758;BME280;39674;59.860;30.672;2023-06-04T17:14:13;101101.13;;;12.68;84.50
53758;BME280;39674;59.860;30.672;2023-06-04T17:17:00;101007.44;;;12.04;85.21
53758;BME280;39674;59.860;30.672;2023-06-04T17:19:42;101105.25;;;12.58;84.17
53758;BME280;39674;59.860;30.672;2023-06-04T17:22:29;101070.66;;;12.44;84.39
53758;BME280;39674;59.860;30.672;2023-06-04T17:25:34;101012.25;;;11.96;84.90
53758;BME280;39674;59.860;30.672;2023-06-04T17:29:00;101039.84;;;12.09;85.22
53758;BME280;39674;59.860;30.672;2023-06-04T17:32:05;101112.88;;;12.47;84.38
53758;BME280;39674;59.860;30.672;2023-06-04T17:34:48;101060.31;;;12.06;84.04
53758;BME280;39674;59.860;30.672;2023-06-04T17:37:19;101041.75;;;11.88;84.08
53758;BME280;39674;59.860;30.672;2023-06-04T17:39:50;101097.59;;;12.18;84.01
53758;BME280;39674;59.860;30.672;2023-06-04T17:42:22;100993.06;;;11.57;84.66
53758;BME280;39674;59.860;30.672;2023-06-04T17:44:54;101009.88;;;11.56;85.36
53758;BME280;39674;59.860;30.672;2023-06-04T17:55:27;101044.91;;;11.61;86.49
53758;BME280;39674;59.860;30.672;2023-06-04T17:58:03;100989.16;;;11.12;86.91
53758;BME280;39674;59.860;30.672;2023-06-04T18:00:42;101057.09;;;11.46;87.24
53758;BME280;39674;59.860;30.672;2023-06-04T18:03:31;101121.31;;;11.85;87.88
53758;BME280;39674;59.860;30.672;2023-06-04T18:06:13;101079.75;;;11.52;87.75
53758;BME280;39674;59.860;30.672;2023-06-04T18:10:18;100992.19;;;11.04;88.37
53758;BME280;39674;59.860;30.672;2023-06-04T18:13:36;101115.88;;;11.88;86.88
53758;BME280;39674;59.860;30.672;2023-06-04T18:21:19;100981.72;;;10.83;88.62
53758;BME280;39674;59.860;30.672;2023-06-04T18:59:15;101054.97;;;10.60;98.04
53758;BME280;39674;59.860;30.672;2023-06-04T19:02:23;100996.91;;;10.21;98.58
53758;BME280;39674;59.860;30.672;2023-06-04T19:24:27;101090.59;;;10.52;100.00
53758;BME280;39674;59.860;30.672;2023-06-04T19:54:32;101081.38;;;10.21;100.00
53758;BME280;39674;59.860;30.672;2023-06-04T19:57:29;101005.38;;;9.69;100.00
53758;BME280;39674;59.860;30.672;2023-06-04T20:12:12;101128.91;;;10.21;100.00
53758;BME280;39674;59.860;30.672;2023-06-04T20:15:39;101002.50;;;9.32;100.00
53758;BME280;39674;59.860;30.672;2023-06-04T20:19:37;100994.06;;;9.24;100.00
53758;BME280;39674;59.860;30.672;2023-06-04T20:22:44;100988.13;;;9.19;100.00
53758;BME280;39674;59.860;30.672;2023-06-04T20:26:43;101001.41;;;9.15;100.00
53758;BME280;39674;59.860;30.672;2023-06-04T20:29:47;101008.91;;;9.04;100.00
53758;BME280;39674;59.860;30.672;2023-06-04T20:36:53;101121.97;;;9.55;100.00
53758;BME280;39674;59.860;30.672;2023-06-04T20:39:29;101009.00;;;8.79;100.00
53758;BME280;39674;59.860;30.672;2023-06-04T20:42:16;101057.56;;;8.95;100.00
53758;BME280;39674;59.860;30.672;2023-06-04T20:45:43;101000.91;;;8.61;100.00